createdAt,value
2023-03-28T00:02:07.784Z,-4.40
2023-03-28T00:04:37.531Z,-4.50
2023-03-28T00:07:06.609Z,-4.50
2023-03-28T00:09:34.856Z,-4.50
2023-03-28T00:12:02.864Z,-4.50
2023-03-28T00:14:31.258Z,-4.60
2023-03-28T00:17:01.954Z,-4.60
2023-03-28T00:19:33.093Z,-4.60
2023-03-28T00:22:01.608Z,-4.60
2023-03-28T00:24:29.577Z,-4.70
2023-03-28T00:27:00.473Z,-4.70
2023-03-28T00:29:30.151Z,-4.70
2023-03-28T00:31:58.500Z,-4.70
2023-03-28T00:34:26.843Z,-4.80
2023-03-28T00:36:56.263Z,-4.80
2023-03-28T00:39:26.496Z,-4.90
2023-03-28T00:41:55.496Z,-4.80
2023-03-28T00:44:45.489Z,-4.90
2023-03-28T00:47:25.598Z,-4.80
2023-03-28T00:49:58.802Z,-4.80
2023-03-28T00:52:32.219Z,-4.80
2023-03-28T00:55:01.539Z,-4.90
2023-03-28T00:57:30.176Z,-4.90
2023-03-28T00:59:58.503Z,-4.90
2023-03-28T01:02:27.091Z,-5.00
2023-03-28T01:04:59.418Z,-5.00
2023-03-28T01:07:33.451Z,-4.90
2023-03-28T01:10:04.004Z,-4.90
2023-03-28T01:12:34.460Z,-4.90
2023-03-28T01:15:04.282Z,-4.80
2023-03-28T01:17:42.797Z,-4.90
2023-03-28T01:20:29.512Z,-4.80
2023-03-28T01:23:38.331Z,-4.80
2023-03-28T01:26:37.457Z,-4.70
2023-03-28T01:30:01.055Z,-4.70
2023-03-28T01:33:26.610Z,-4.60
2023-03-28T01:36:33.963Z,-4.60
2023-03-28T01:39:09.406Z,-4.60
2023-03-28T01:41:46.921Z,-4.70
2023-03-28T01:44:25.438Z,-4.60
2023-03-28T01:47:01.471Z,-4.60
2023-03-28T01:49:35.588Z,-4.60
2023-03-28T01:52:10.097Z,-4.60
2023-03-28T01:54:45.953Z,-4.60
2023-03-28T01:57:21.492Z,-4.50
2023-03-28T01:59:54.313Z,-4.50
2023-03-28T02:02:31.354Z,-4.50
2023-03-28T02:05:25.004Z,-4.50
2023-03-28T02:07:54.665Z,-4.60
2023-03-28T02:10:35.899Z,-4.60
2023-03-28T02:13:18.785Z,-4.60
2023-03-28T02:15:53.641Z,-4.50
2023-03-28T02:18:34.466Z,-4.50
2023-03-28T02:21:24.436Z,-4.60
2023-03-28T02:24:09.793Z,-4.50
2023-03-28T02:27:10.976Z,-4.60
2023-03-28T02:29:49.358Z,-4.60
2023-03-28T02:32:21.912Z,-4.60
2023-03-28T02:34:53.417Z,-4.70
2023-03-28T02:37:33.905Z,-4.70
2023-03-28T02:40:15.969Z,-4.70
2023-03-28T02:43:16.718Z,-4.80
2023-03-28T02:46:10.121Z,-4.80
2023-03-28T02:48:54.120Z,-4.90
2023-03-28T02:51:31.784Z,-4.90
2023-03-28T02:54:13.189Z,-4.90
2023-03-28T02:56:51.038Z,-4.90
2023-03-28T02:59:49.498Z,-5.00
2023-03-28T03:02:19.133Z,-5.00
2023-03-28T03:04:47.577Z,-5.00
2023-03-28T03:07:17.982Z,-5.10
2023-03-28T03:09:46.697Z,-5.10
2023-03-28T03:12:14.933Z,-5.20
2023-03-28T03:14:44.269Z,-5.00
2023-03-28T03:17:32.396Z,-5.00
2023-03-28T03:20:06.576Z,-5.00
2023-03-28T03:22:39.799Z,-5.00
2023-03-28T03:25:09.331Z,-5.00
2023-03-28T03:27:55.917Z,-5.00
2023-03-28T03:30:24.599Z,-5.00
2023-03-28T03:33:16.900Z,-5.00
2023-03-28T03:35:47.813Z,-5.00
2023-03-28T03:38:18.134Z,-5.00
2023-03-28T03:40:46.196Z,-5.00
2023-03-28T03:43:15.193Z,-5.00
2023-03-28T03:45:45.936Z,-5.00
2023-03-28T03:48:15.533Z,-5.00
2023-03-28T03:50:43.734Z,-5.00
2023-03-28T03:53:15.803Z,-5.00
2023-03-28T03:56:05.125Z,-4.90
2023-03-28T03:58:51.353Z,-4.90
2023-03-28T04:06:33.923Z,-4.90
2023-03-28T04:09:07.702Z,-4.90
2023-03-28T04:11:57.601Z,-4.90
2023-03-28T04:14:26.017Z,-5.00
2023-03-28T04:17:06.933Z,-5.00
2023-03-28T04:19:40.163Z,-5.00
2023-03-28T04:22:08.419Z,-5.00
2023-03-28T04:24:37.186Z,-5.00
2023-03-28T04:27:31.880Z,-4.90
2023-03-28T04:30:00.605Z,-4.90
2023-03-28T04:33:06.916Z,-5.00
2023-03-28T04:35:41.138Z,-5.20
2023-03-28T04:38:09.747Z,-4.90
2023-03-28T04:40:57.781Z,-4.90
2023-03-28T04:43:48.852Z,-5.00
2023-03-28T04:46:17.593Z,-4.90
2023-03-28T04:48:47.177Z,-5.00
2023-03-28T04:53:49.032Z,-5.00
2023-03-28T04:56:35.397Z,-5.00
2023-03-28T04:59:03.613Z,-5.00
2023-03-28T05:01:33.112Z,-5.00
2023-03-28T05:04:23.610Z,-5.00
2023-03-28T05:06:53.081Z,-5.00
2023-03-28T05:09:22.601Z,-5.00
2023-03-28T05:14:44.834Z,-4.90
2023-03-28T05:17:16.568Z,-5.00
2023-03-28T05:19:57.887Z,-5.00
2023-03-28T05:22:28.601Z,-5.00
2023-03-28T05:25:00.713Z,-5.00
2023-03-28T05:27:28.893Z,-4.90
2023-03-28T05:29:58.274Z,-4.90
2023-03-28T05:32:28.409Z,-4.80
2023-03-28T05:34:56.980Z,-4.80
2023-03-28T05:37:28.787Z,-4.70
2023-03-28T05:39:57.030Z,-4.70
2023-03-28T05:42:25.016Z,-4.60
2023-03-28T05:44:53.052Z,-4.60
2023-03-28T05:47:41.644Z,-4.50
2023-03-28T05:50:11.241Z,-4.50
2023-03-28T05:52:40.050Z,-4.40
2023-03-28T05:55:08.833Z,-4.30
2023-03-28T06:00:13.894Z,-4.10
2023-03-28T06:05:38.760Z,-4.20
2023-03-28T06:08:18.753Z,-4.10
2023-03-28T06:10:47.024Z,-4.10
2023-03-28T06:13:41.226Z,-4.10
2023-03-28T06:16:11.463Z,-4.10
2023-03-28T06:18:39.474Z,-4.00
2023-03-28T06:21:09.203Z,-4.00
2023-03-28T06:23:37.236Z,-4.00
2023-03-28T06:26:05.461Z,-3.90
2023-03-28T06:28:42.784Z,-3.90
2023-03-28T06:31:19.727Z,-3.80
2023-03-28T06:33:48.217Z,-3.80
2023-03-28T06:36:20.874Z,-3.80
2023-03-28T06:38:50.336Z,-3.80
2023-03-28T06:41:18.495Z,-3.80
2023-03-28T06:43:47.153Z,-3.70
2023-03-28T06:46:50.472Z,-3.60
2023-03-28T06:49:18.895Z,-3.60
2023-03-28T06:52:24.669Z,-3.50
2023-03-28T06:54:54.308Z,-3.50
2023-03-28T06:57:22.631Z,-3.40
2023-03-28T06:59:54.978Z,-3.40
2023-03-28T07:02:30.989Z,-3.30
2023-03-28T07:05:11.338Z,-3.20
2023-03-28T07:07:41.207Z,-3.20
2023-03-28T07:10:10.326Z,-3.20
2023-03-28T07:12:39.222Z,-3.10
2023-03-28T07:15:09.160Z,-3.10
2023-03-28T07:17:37.376Z,-3.10
2023-03-28T07:20:06.438Z,-3.00
2023-03-28T07:22:34.572Z,-2.80
2023-03-28T07:25:04.043Z,-2.80
2023-03-28T07:27:32.722Z,-2.70
2023-03-28T07:30:00.905Z,-2.60
2023-03-28T07:32:35.796Z,-2.50
2023-03-28T07:35:08.995Z,-2.60
2023-03-28T07:37:47.305Z,-2.60
2023-03-28T07:40:36.414Z,-2.50
2023-03-28T07:43:05.031Z,-2.50
2023-03-28T07:45:33.127Z,-2.50
2023-03-28T07:48:01.305Z,-2.40
2023-03-28T07:50:29.930Z,-2.40
2023-03-28T07:52:59.180Z,-2.30
2023-03-28T07:55:30.360Z,-2.30
2023-03-28T07:58:00.276Z,-2.40
2023-03-28T08:00:32.192Z,-2.30
2023-03-28T08:03:19.458Z,-2.20
2023-03-28T08:05:52.082Z,-2.20
2023-03-28T08:08:22.612Z,-2.10
2023-03-28T08:11:13.300Z,-2.10
2023-03-28T08:13:42.635Z,-2.00
2023-03-28T08:16:19.670Z,-1.90
2023-03-28T08:18:56.987Z,-1.80
2023-03-28T08:21:31.138Z,-1.80
2023-03-28T08:23:59.268Z,-1.60
2023-03-28T08:26:39.557Z,-1.60
2023-03-28T08:29:10.217Z,-1.50
2023-03-28T08:31:39.585Z,-1.40
2023-03-28T08:34:13.051Z,-1.30
2023-03-28T08:36:43.277Z,-1.40
2023-03-28T08:39:24.382Z,-1.40
2023-03-28T08:42:09.387Z,-1.40
2023-03-28T08:44:51.963Z,-1.30
2023-03-28T08:47:25.338Z,-1.30
2023-03-28T08:49:57.831Z,-1.10
2023-03-28T08:52:27.048Z,-1.10
2023-03-28T08:55:01.301Z,-1.00
2023-03-28T08:57:33.215Z,-1.00
2023-03-28T09:00:12.781Z,-0.90
2023-03-28T09:02:41.223Z,-0.70
2023-03-28T09:05:23.189Z,-0.60
2023-03-28T09:08:04.144Z,-0.60
2023-03-28T09:10:40.994Z,-0.70
2023-03-28T09:13:34.304Z,-0.50
2023-03-28T09:16:23.900Z,-0.40
2023-03-28T09:19:37.075Z,-0.30
2023-03-28T09:22:55.254Z,-0.30
2023-03-28T09:25:38.883Z,-0.20
2023-03-28T09:28:19.529Z,-0.20
2023-03-28T09:30:51.627Z,-0.20
2023-03-28T10:19:55.274Z,1.10
2023-03-28T10:22:29.127Z,1.00
2023-03-28T10:24:59.626Z,0.90
2023-03-28T10:27:32.716Z,1.00
2023-03-28T10:30:12.362Z,0.90
2023-03-28T10:32:41.077Z,1.20
2023-03-28T10:35:27.996Z,1.20
2023-03-28T10:38:05.609Z,1.20
2023-03-28T10:41:12.611Z,1.20
2023-03-28T10:44:18.923Z,1.30
2023-03-28T10:47:18.993Z,1.50
2023-03-28T10:49:56.643Z,1.40
2023-03-28T10:52:37.344Z,1.50
2023-03-28T10:55:14.984Z,1.50
2023-03-28T11:00:35.312Z,1.40
2023-03-28T11:03:19.607Z,1.50
2023-03-28T11:06:08.188Z,1.40
2023-03-28T11:08:48.586Z,1.30
2023-03-28T11:11:36.749Z,1.40
2023-03-28T11:14:15.509Z,1.50
2023-03-28T11:16:54.613Z,1.60
2023-03-28T11:19:51.105Z,1.70
2023-03-28T11:22:30.775Z,1.80
2023-03-28T11:25:07.403Z,1.80
2023-03-28T11:28:01.898Z,1.90
2023-03-28T11:30:38.039Z,2.00
2023-03-28T11:33:26.041Z,2.20
2023-03-28T11:36:04.755Z,2.20
2023-03-28T11:38:36.292Z,2.10
2023-03-28T11:41:10.791Z,2.00
2023-03-28T11:44:17.106Z,2.00
2023-03-28T11:46:51.287Z,2.00
2023-03-28T11:49:26.077Z,2.00
2023-03-28T11:52:00.612Z,2.20
2023-03-28T11:54:36.574Z,2.20
2023-03-28T11:57:12.645Z,2.20
2023-03-28T11:59:52.796Z,2.10
2023-03-28T12:02:41.352Z,2.20
2023-03-28T12:05:21.004Z,2.30
2023-03-28T12:07:55.562Z,2.40
2023-03-28T12:10:35.885Z,2.50
2023-03-28T12:13:14.225Z,2.60
2023-03-28T12:15:57.158Z,2.80
2023-03-28T12:18:32.263Z,2.90
2023-03-28T12:21:08.632Z,2.70
2023-03-28T12:23:57.450Z,2.70
2023-03-28T12:26:37.290Z,2.70
2023-03-28T12:29:13.809Z,2.60
2023-03-28T12:31:48.018Z,2.60
2023-03-28T12:34:28.736Z,2.70
2023-03-28T12:37:25.733Z,2.80
2023-03-28T12:40:00.270Z,2.80
2023-03-28T12:42:31.434Z,3.00
2023-03-28T12:45:03.682Z,3.00
2023-03-28T12:47:37.461Z,2.80
2023-03-28T12:50:09.063Z,2.60
2023-03-28T13:37:49.104Z,3.30
2023-03-28T13:40:45.524Z,3.30
2023-03-28T13:43:25.035Z,3.40
2023-03-28T13:45:55.928Z,3.40
2023-03-28T13:48:25.862Z,3.20
2023-03-28T13:50:54.968Z,3.30
2023-03-28T13:53:28.239Z,3.30
2023-03-28T14:08:28.330Z,3.30
2023-03-28T16:54:21.591Z,1.20
2023-03-28T16:56:49.881Z,1.20
2023-03-28T16:59:18.064Z,1.20
2023-03-28T17:01:47.688Z,1.20
2023-03-28T17:12:25.156Z,0.50
2023-03-28T17:14:53.514Z,0.60
2023-03-28T17:17:21.538Z,0.50
2023-03-28T17:19:50.369Z,0.40
2023-03-28T17:22:18.665Z,0.30
2023-03-28T17:24:46.963Z,0.30
2023-03-28T17:27:15.896Z,0.10
2023-03-28T17:29:45.330Z,0.00
2023-03-28T17:32:13.659Z,-0.10
